Time;durP1;ratioP1;P1;durP2;ratioP2;P2;SDS_P1;SDS_P2;PMS_P1;PMS_P2;Temp;Humidity;BMP_temperature;BMP_pressure;BME280_temperature;BME280_humidity;BME280_pressure;Samples;Min_cycle;Max_cycle;Signal;HPM_P1;HPM_P2
2023/11/13 00:00:56;;;;;;;0.10;0.10;;;;;;;6.19;74.25;101215.84;5073386;28;20020;-88
2023/11/13 00:03:22;;;;;;;0.20;0.20;;;;;;;6.11;74.73;101211.78;5039715;28;20036;-87
2023/11/13 00:05:47;;;;;;;0.20;0.20;;;;;;;6.08;75.15;101219.53;5039843;28;20028;-87
2023/11/13 00:08:13;;;;;;;0.10;0.10;;;;;;;6.07;74.91;101226.38;5073126;28;20040;-86
2023/11/13 00:10:38;;;;;;;0.20;0.20;;;;;;;6.03;74.68;101228.19;5072915;28;20033;-87
2023/11/13 00:13:04;;;;;;;0.17;0.17;;;;;;;5.91;75.07;101225.88;5056572;28;20060;-87
2023/11/13 00:15:29;;;;;;;0.20;0.20;;;;;;;5.97;75.31;101222.31;5073018;28;20056;-87
2023/11/13 00:17:55;;;;;;;0.10;0.10;;;;;;;6.04;74.16;101231.59;5056024;28;20036;-87
2023/11/13 00:20:21;;;;;;;0.10;0.10;;;;;;;5.92;73.81;101232.69;5056693;28;20058;-88
2023/11/13 00:22:46;;;;;;;0.10;0.10;;;;;;;5.85;74.43;101233.66;5056416;28;20024;-87
2023/11/13 00:25:12;;;;;;;0.10;0.10;;;;;;;5.83;74.91;101237.13;5039569;28;20020;-87
2023/11/13 00:27:38;;;;;;;0.20;0.20;;;;;;;5.70;75.12;101210.84;5072906;28;20494;-87
2023/11/13 00:30:06;;;;;;;0.13;0.13;;;;;;;5.72;75.02;101234.78;5072582;28;20047;-86
2023/11/13 00:32:32;;;;;;;0.20;0.20;;;;;;;5.67;75.24;101236.56;5056334;28;20123;-88
2023/11/13 00:34:57;;;;;;;0.10;0.10;;;;;;;5.61;75.71;101239.28;5056038;28;20410;-87
2023/11/13 00:37:23;;;;;;;0.20;0.20;;;;;;;5.63;76.02;101238.38;5072348;28;20029;-87
2023/11/13 00:39:48;;;;;;;0.10;0.10;;;;;;;5.55;75.75;101231.69;5055742;28;20063;-87
2023/11/13 00:42:16;;;;;;;0.10;0.10;;;;;;;5.63;75.96;101245.22;5072594;28;20548;-87
2023/11/13 00:44:42;;;;;;;0.10;0.10;;;;;;;5.52;75.86;101234.31;5056472;28;20052;-87
2023/11/13 00:47:07;;;;;;;0.20;0.20;;;;;;;5.47;75.78;101227.53;5055416;28;20413;-87
2023/11/13 00:49:32;;;;;;;0.10;0.10;;;;;;;5.51;75.83;101233.47;5072424;28;20032;-88
2023/11/13 00:51:59;;;;;;;0.20;0.20;;;;;;;5.56;75.44;101238.50;5072294;28;20067;-88
2023/11/13 00:54:24;;;;;;;0.10;0.10;;;;;;;5.47;75.68;101230.09;5072361;28;20028;-88
2023/11/13 00:56:50;;;;;;;0.10;0.10;;;;;;;5.44;75.76;101224.19;5072076;28;20078;-86
2023/11/13 00:59:15;;;;;;;0.10;0.10;;;;;;;5.44;74.96;101225.03;5055509;28;20028;-88
2023/11/13 01:01:41;;;;;;;0.10;0.10;;;;;;;5.36;75.15;101221.75;5071875;28;20074;-87
2023/11/13 01:04:07;;;;;;;0.20;0.20;;;;;;;5.08;75.64;101184.63;5038875;28;20029;-87
2023/11/13 01:06:32;;;;;;;0.10;0.10;;;;;;;5.26;75.92;101217.66;5088666;28;20033;-87
2023/11/13 01:08:58;;;;;;;0.10;0.10;;;;;;;5.27;75.98;101221.91;5089190;28;20483;-88
2023/11/13 01:11:24;;;;;;;0.20;0.20;;;;;;;5.21;76.41;101229.72;5038796;28;20028;-87
2023/11/13 01:13:49;;;;;;;0.10;0.10;;;;;;;5.24;75.82;101227.09;5071076;28;20124;-88
2023/11/13 01:16:17;;;;;;;0.10;0.10;;;;;;;5.30;76.04;101232.09;5055372;28;20017;-87
2023/11/13 01:18:42;;;;;;;0.20;0.20;;;;;;;5.26;75.49;101209.09;5071967;28;20035;-88
2023/11/13 01:21:08;;;;;;;0.20;0.20;;;;;;;5.22;76.10;101210.91;5038623;28;20024;-87
2023/11/13 01:23:33;;;;;;;0.10;0.10;;;;;;;5.11;76.40;101199.94;5055241;28;20503;-86
2023/11/13 01:25:59;;;;;;;0.10;0.10;;;;;;;5.23;76.29;101210.00;5055394;28;20082;-86
2023/11/13 01:28:24;;;;;;;0.10;0.10;;;;;;;5.19;76.12;101204.06;5054661;28;20028;-87
2023/11/13 01:30:50;;;;;;;0.10;0.10;;;;;;;5.26;76.28;101221.94;5071694;28;20917;-87
2023/11/13 01:33:15;;;;;;;0.10;0.10;;;;;;;5.36;75.89;101219.19;5071935;28;20430;-87
2023/11/13 01:35:41;;;;;;;0.10;0.10;;;;;;;5.18;76.08;101209.22;5054891;28;20028;-88
2023/11/13 01:38:06;;;;;;;0.20;0.20;;;;;;;5.22;75.90;101228.00;5071575;28;20154;-86
2023/11/13 01:40:32;;;;;;;0.10;0.10;;;;;;;5.23;75.53;101227.97;5054344;28;20105;-87
2023/11/13 01:42:58;;;;;;;0.20;0.20;;;;;;;5.23;75.39;101237.38;5054443;28;20029;-86
2023/11/13 01:45:23;;;;;;;0.10;0.10;;;;;;;5.07;75.53;101219.69;5054771;28;20024;-87
2023/11/13 01:47:49;;;;;;;0.10;0.10;;;;;;;5.20;75.59;101243.41;5088131;28;20127;-87
2023/11/13 01:50:14;;;;;;;0.10;0.10;;;;;;;5.13;76.13;101244.41;5054448;28;20044;-87
2023/11/13 01:52:40;;;;;;;0.20;0.20;;;;;;;5.05;75.97;101231.69;5088152;28;20039;-87
2023/11/13 01:55:06;;;;;;;0.10;0.10;;;;;;;4.94;76.28;101237.88;5054614;28;20037;-87
2023/11/13 01:57:31;;;;;;;0.20;0.20;;;;;;;5.01;75.64;101259.94;5070895;28;20482;-86
2023/11/13 01:59:57;;;;;;;0.10;0.10;;;;;;;4.95;75.91;101257.50;5037758;28;20033;-87
2023/11/13 02:02:22;;;;;;;0.20;0.20;;;;;;;4.90;76.23;101267.81;5054583;28;20115;-86
2023/11/13 02:04:49;;;;;;;0.20;0.20;;;;;;;4.94;75.58;101266.91;5054459;28;20029;-87
2023/11/13 02:07:15;;;;;;;0.10;0.10;;;;;;;4.89;75.93;101266.97;5071051;28;20020;-87
2023/11/13 02:09:41;;;;;;;0.10;0.10;;;;;;;4.95;76.16;101275.47;5054380;28;20024;-87
2023/11/13 02:12:11;;;;;;;0.20;0.20;;;;;;;4.98;75.94;101288.22;5070560;28;20080;-87
2023/11/13 02:14:36;;;;;;;0.10;0.10;;;;;;;4.93;75.96;101293.44;5053787;28;20079;-87
2023/11/13 02:17:05;;;;;;;0.17;0.17;;;;;;;4.83;75.62;101277.34;5037112;28;20068;-87
2023/11/13 02:19:31;;;;;;;0.10;0.10;;;;;;;4.76;75.88;101280.00;5070328;28;20025;-87
2023/11/13 02:21:59;;;;;;;0.10;0.10;;;;;;;4.96;75.17;101302.78;5070231;28;20111;-87
2023/11/13 02:24:24;;;;;;;0.10;0.10;;;;;;;4.95;75.39;101313.91;5087255;28;20548;-86
2023/11/13 02:26:51;;;;;;;0.10;0.10;;;;;;;4.86;75.35;101300.34;5053699;28;20070;-87
2023/11/13 02:29:16;;;;;;;0.20;0.20;;;;;;;4.92;75.67;101322.50;5054096;28;20119;-88
2023/11/13 02:31:52;;;;;;;0.20;0.20;;;;;;;4.91;75.12;101336.16;5070161;28;20414;-87
2023/11/13 02:34:18;;;;;;;0.15;0.15;;;;;;;4.79;75.82;101321.81;5070497;28;20043;-87
2023/11/13 02:36:45;;;;;;;0.10;0.10;;;;;;;4.81;75.73;101320.06;5071672;28;20526;-86
2023/11/13 02:39:11;;;;;;;0.10;0.10;;;;;;;4.82;76.25;101321.78;5070260;28;20042;-87
2023/11/13 02:41:37;;;;;;;0.10;0.10;;;;;;;4.96;76.53;101325.88;5070010;28;20024;-87
2023/11/13 02:44:02;;;;;;;0.10;0.10;;;;;;;4.87;76.82;101316.59;5053165;28;20032;-88
2023/11/13 02:46:28;;;;;;;0.10;0.10;;;;;;;4.59;77.28;101295.63;5070537;28;20108;-87
2023/11/13 02:48:53;;;;;;;0.10;0.10;;;;;;;4.80;77.08;101322.66;5086778;28;20024;-87
2023/11/13 02:51:19;;;;;;;0.10;0.10;;;;;;;4.87;77.20;101330.25;5036953;28;20082;-87
2023/11/13 02:53:44;;;;;;;0.10;0.10;;;;;;;4.89;77.59;101323.38;5069981;28;20032;-86
2023/11/13 02:56:10;;;;;;;0.10;0.10;;;;;;;5.02;77.03;101328.34;5069425;28;20060;-86
2023/11/13 02:58:35;;;;;;;0.10;0.10;;;;;;;5.12;77.23;101335.03;5086779;28;20040;-87
2023/11/13 03:01:01;;;;;;;0.10;0.10;;;;;;;5.05;77.50;101328.28;5052952;28;20035;-87
2023/11/13 03:03:27;;;;;;;0.10;0.10;;;;;;;5.22;77.37;101346.00;5053096;28;20028;-87
2023/11/13 03:05:52;;;;;;;0.20;0.20;;;;;;;5.32;76.91;101338.13;5069512;28;20026;-88
2023/11/13 03:08:18;;;;;;;0.10;0.10;;;;;;;5.38;76.79;101348.28;5069830;28;20453;-87
2023/11/13 03:10:44;;;;;;;0.20;0.20;;;;;;;5.42;76.12;101339.69;5069581;28;20024;-87
2023/11/13 03:13:09;;;;;;;0.10;0.10;;;;;;;5.47;76.26;101350.69;5086053;28;20115;-87
2023/11/13 03:15:35;;;;;;;0.10;0.10;;;;;;;5.55;76.27;101350.59;5036420;28;20115;-87
2023/11/13 03:18:00;;;;;;;0.10;0.10;;;;;;;5.54;76.46;101342.91;5052834;28;20028;-87
2023/11/13 03:20:26;;;;;;;0.10;0.10;;;;;;;5.48;76.42;101324.16;5052794;28;20486;-88
2023/11/13 03:22:51;;;;;;;0.10;0.10;;;;;;;5.51;76.96;101320.72;5053320;28;20051;-87
2023/11/13 03:25:18;;;;;;;0.10;0.10;;;;;;;5.55;76.96;101316.38;5069608;28;20032;-87
2023/11/13 03:27:43;;;;;;;0.17;0.17;;;;;;;5.62;76.80;101325.66;5086397;28;20032;-86
2023/11/13 03:30:09;;;;;;;0.10;0.10;;;;;;;5.54;76.83;101323.22;5036065;28;20032;-87
2023/11/13 03:32:35;;;;;;;0.10;0.10;;;;;;;5.53;76.79;101320.69;5052438;28;20418;-87
2023/11/13 03:35:01;;;;;;;0.10;0.10;;;;;;;5.60;76.77;101322.25;5069376;28;20028;-87
2023/11/13 03:37:26;;;;;;;0.10;0.10;;;;;;;5.56;76.67;101320.63;5052862;28;20029;-88
2023/11/13 03:39:52;;;;;;;0.10;0.10;;;;;;;5.61;76.80;101314.56;5051962;28;20047;-87
2023/11/13 03:42:18;;;;;;;0.10;0.10;;;;;;;5.59;76.92;101302.59;5068938;28;20106;-88
2023/11/13 03:47:28;;;;;;;0.10;0.10;;;;;;;5.70;76.73;101341.75;5055401;28;20043;-87
2023/11/13 03:49:54;;;;;;;0.10;0.10;;;;;;;5.80;76.20;101345.91;5052524;28;20033;-87
2023/11/13 03:52:20;;;;;;;0.10;0.10;;;;;;;5.69;75.77;101347.78;5036222;28;20494;-87
2023/11/13 03:54:45;;;;;;;0.10;0.10;;;;;;;5.51;76.43;101341.25;5069283;28;20039;-87
2023/11/13 03:57:11;;;;;;;0.10;0.10;;;;;;;5.57;76.55;101342.84;5035956;28;20037;-87
2023/11/13 03:59:37;;;;;;;0.10;0.10;;;;;;;5.69;75.26;101346.06;5052667;28;20395;-83
2023/11/13 04:02:02;;;;;;;0.10;0.10;;;;;;;5.80;78.64;101340.75;5052399;28;20384;-85
2023/11/13 04:04:28;;;;;;;0.10;0.10;;;;;;;6.64;73.53;101346.84;5069057;28;20032;-84
2023/11/13 04:06:54;;;;;;;0.10;0.10;;;;;;;6.30;72.60;101344.13;5085666;28;20052;-86
2023/11/13 04:09:19;;;;;;;0.20;0.20;;;;;;;6.21;72.84;101355.44;5069725;28;20115;-86
2023/11/13 04:11:45;;;;;;;0.20;0.20;;;;;;;6.04;73.63;101335.19;5069414;28;20536;-88
2023/11/13 04:14:11;;;;;;;0.20;0.20;;;;;;;6.07;74.36;101348.84;5052073;28;20589;-86
2023/11/13 04:16:37;;;;;;;0.20;0.20;;;;;;;5.97;74.49;101338.75;5035729;28;20151;-86
2023/11/13 04:19:02;;;;;;;0.20;0.20;;;;;;;6.10;74.83;101347.09;5068829;28;20025;-87
2023/11/13 04:21:31;;;;;;;0.10;0.10;;;;;;;5.97;74.53;101349.00;5069154;28;20514;-86
2023/11/13 04:24:03;;;;;;;0.10;0.10;;;;;;;5.99;74.58;101362.66;5052281;28;20125;-87
2023/11/13 04:26:29;;;;;;;0.20;0.20;;;;;;;5.92;75.35;101360.25;5053033;28;20071;-87
2023/11/13 04:28:54;;;;;;;0.20;0.20;;;;;;;5.86;75.48;101356.03;5085779;28;20064;-87
2023/11/13 04:31:20;;;;;;;0.20;0.20;;;;;;;5.81;75.97;101362.16;5068912;28;20094;-87
2023/11/13 04:33:45;;;;;;;0.10;0.10;;;;;;;5.80;76.35;101371.56;5068463;28;20149;-86
2023/11/13 04:36:11;;;;;;;0.10;0.10;;;;;;;5.84;76.17;101372.34;5052222;28;20028;-86
2023/11/13 04:38:40;;;;;;;0.10;0.10;;;;;;;5.81;76.58;101373.25;5051622;28;20029;-87
2023/11/13 04:41:06;;;;;;;0.10;0.10;;;;;;;5.81;77.11;101374.97;5068847;28;20082;-86
2023/11/13 04:43:31;;;;;;;0.20;0.20;;;;;;;5.87;77.36;101375.69;5054995;28;20028;-87
2023/11/13 04:45:57;;;;;;;0.20;0.20;;;;;;;5.90;76.63;101370.56;5072454;28;20024;-87
2023/11/13 04:48:22;;;;;;;0.20;0.20;;;;;;;5.79;76.44;101331.34;5043304;28;20237;-87
2023/11/13 04:50:48;;;;;;;0.10;0.10;;;;;;;5.96;75.41;101382.44;5071100;28;20068;-88
2023/11/13 04:53:14;;;;;;;0.20;0.20;;;;;;;6.02;75.05;101390.88;5055147;28;20025;-87
2023/11/13 04:55:39;;;;;;;0.20;0.20;;;;;;;5.92;75.05;101386.78;5055214;28;20052;-88
2023/11/13 04:58:05;;;;;;;0.20;0.20;;;;;;;6.02;75.27;101393.44;5055130;28;20032;-86
2023/11/13 05:00:30;;;;;;;0.20;0.20;;;;;;;6.12;74.82;101406.13;5055197;28;20085;-87
2023/11/13 05:02:56;;;;;;;0.10;0.10;;;;;;;6.12;75.01;101403.56;5055034;28;20051;-88
2023/11/13 05:05:21;;;;;;;0.20;0.20;;;;;;;6.07;75.26;101403.63;5045792;28;20032;-88
2023/11/13 05:07:47;;;;;;;0.20;0.20;;;;;;;5.99;75.47;101397.78;5053927;28;20479;-89
2023/11/13 05:10:12;;;;;;;0.10;0.10;;;;;;;6.04;75.36;101413.97;5055252;28;20033;-88
2023/11/13 05:12:38;;;;;;;0.10;0.10;;;;;;;6.01;76.16;101414.88;5053463;28;20097;-87
2023/11/13 05:15:04;;;;;;;0.10;0.10;;;;;;;6.04;75.30;101404.53;5034833;28;20045;-93
2023/11/13 05:17:30;;;;;;;0.20;0.20;;;;;;;6.11;75.16;101417.28;5047004;28;20031;-85
2023/11/13 05:19:55;;;;;;;0.20;0.20;;;;;;;6.18;75.00;101411.16;5088301;28;20028;-93
2023/11/13 05:22:21;;;;;;;0.10;0.10;;;;;;;6.23;74.31;101406.78;5073581;28;20051;-92
2023/11/13 05:24:47;;;;;;;0.20;0.20;;;;;;;6.26;74.32;101404.16;5071041;28;20421;-85
2023/11/13 05:27:13;;;;;;;0.10;0.10;;;;;;;6.21;74.77;101404.25;5072317;28;20036;-91
2023/11/13 05:29:40;;;;;;;0.20;0.20;;;;;;;5.94;75.17;101389.31;5064902;28;20025;-90
2023/11/13 05:32:05;;;;;;;0.10;0.10;;;;;;;6.11;75.77;101407.84;5067496;28;20103;-93
2023/11/13 05:34:31;;;;;;;0.20;0.20;;;;;;;6.09;74.99;101413.88;5071290;28;20104;-91
2023/11/13 05:36:57;;;;;;;0.10;0.10;;;;;;;6.08;74.74;101399.34;5054106;28;20040;-87
2023/11/13 05:39:23;;;;;;;0.20;0.20;;;;;;;6.14;74.36;101401.81;5049617;28;20033;-87
2023/11/13 05:41:48;;;;;;;0.20;0.20;;;;;;;6.18;74.24;101394.00;5045220;28;20502;-89
2023/11/13 05:44:14;;;;;;;0.20;0.20;;;;;;;6.23;74.19;101383.66;5046661;28;20052;-91
2023/11/13 05:46:40;;;;;;;0.20;0.20;;;;;;;6.26;74.33;101376.72;5052462;28;20573;-86
2023/11/13 05:49:05;;;;;;;0.20;0.20;;;;;;;6.25;74.20;101358.78;5034670;28;20071;-86
2023/11/13 05:51:32;;;;;;;0.20;0.20;;;;;;;6.12;75.27;101347.06;5062253;28;20041;-89
2023/11/13 05:53:58;;;;;;;0.20;0.20;;;;;;;6.29;75.56;101360.41;5052653;28;20085;-82
2023/11/13 05:56:23;;;;;;;0.10;0.10;;;;;;;6.35;75.85;101369.72;5072903;28;20105;-86
2023/11/13 05:58:49;;;;;;;0.20;0.20;;;;;;;6.27;75.90;101381.00;5058558;28;20213;-90
2023/11/13 06:01:18;;;;;;;0.10;0.10;;;;;;;6.28;75.84;101382.69;5056003;28;20502;-89
2023/11/13 06:03:43;;;;;;;0.20;0.20;;;;;;;6.37;76.01;101389.38;5059752;28;20029;-85
2023/11/13 06:06:13;;;;;;;0.10;0.10;;;;;;;6.23;76.53;101401.66;5054671;28;20066;-84
2023/11/13 06:08:40;;;;;;;0.20;0.20;;;;;;;6.30;76.41;101424.63;5063759;28;20031;-89
2023/11/13 06:11:06;;;;;;;0.10;0.10;;;;;;;6.26;76.11;101409.28;5064501;28;20036;-91
2023/11/13 06:13:32;;;;;;;0.20;0.20;;;;;;;6.11;76.54;101395.00;5047878;28;20045;-90
2023/11/13 06:15:58;;;;;;;0.20;0.20;;;;;;;6.35;76.34;101442.53;5081793;28;20043;-91
2023/11/13 06:18:24;;;;;;;0.20;0.20;;;;;;;6.17;76.61;101453.13;5068400;28;20032;-92
2023/11/13 06:20:50;;;;;;;0.20;0.20;;;;;;;6.20;76.47;101483.94;5067969;28;20083;-90
2023/11/13 06:23:16;;;;;;;0.20;0.20;;;;;;;6.20;76.53;101483.94;5046420;28;20057;-88
2023/11/13 06:25:42;;;;;;;0.20;0.20;;;;;;;6.14;74.90;101487.44;5049917;28;20477;-86
2023/11/13 06:28:08;;;;;;;0.20;0.20;;;;;;;6.11;74.50;101499.50;5068661;28;20522;-88
2023/11/13 06:30:34;;;;;;;0.10;0.10;;;;;;;6.08;73.76;101502.94;5051133;28;20473;-84
2023/11/13 06:32:59;;;;;;;0.20;0.20;;;;;;;5.95;73.25;101476.63;5053823;28;20063;-86
2023/11/13 06:35:27;;;;;;;0.20;0.20;;;;;;;5.88;72.79;101492.97;5047720;28;20028;-83
2023/11/13 06:37:52;;;;;;;0.10;0.10;;;;;;;5.83;72.38;101506.75;5075615;28;20048;-83
2023/11/13 06:40:18;;;;;;;0.10;0.10;;;;;;;5.62;73.14;101502.78;5060737;28;20172;-81
2023/11/13 06:42:45;;;;;;;0.10;0.10;;;;;;;5.74;73.29;101490.63;5039014;28;20059;-88
2023/11/13 06:45:11;;;;;;;0.10;0.10;;;;;;;5.76;73.14;101473.47;5060909;28;20729;-84
2023/11/13 06:47:38;;;;;;;0.10;0.10;;;;;;;5.88;72.71;101477.53;5057160;28;20036;-85
2023/11/13 06:50:06;;;;;;;0.10;0.10;;;;;;;5.84;72.60;101455.38;5066699;28;20056;-91
2023/11/13 06:52:32;;;;;;;0.10;0.10;;;;;;;5.96;72.55;101462.91;5078958;28;20090;-92
2023/11/13 06:54:58;;;;;;;0.20;0.20;;;;;;;6.14;72.94;101473.75;5048897;28;20025;-90
2023/11/13 06:57:25;;;;;;;0.20;0.20;;;;;;;6.33;72.17;101467.41;5078688;28;20033;-89
2023/11/13 06:59:52;;;;;;;0.13;0.13;;;;;;;6.51;72.27;101469.66;5053702;28;20528;-88
2023/11/13 07:02:21;;;;;;;0.20;0.20;;;;;;;6.59;72.53;101457.50;5055023;28;20039;-89
2023/11/13 07:04:49;;;;;;;0.20;0.20;;;;;;;6.70;71.67;101464.16;5046452;28;20029;-90
2023/11/13 07:07:15;;;;;;;0.20;0.20;;;;;;;6.58;73.14;101466.06;5056307;28;20044;-89
2023/11/13 07:09:41;;;;;;;0.20;0.20;;;;;;;6.59;73.67;101466.94;5057259;28;20035;-85
2023/11/13 07:12:10;;;;;;;0.20;0.20;;;;;;;6.76;74.56;101479.44;5062266;28;20041;-83
2023/11/13 07:14:36;;;;;;;0.20;0.20;;;;;;;6.73;74.83;101471.81;5054093;28;20048;-91
2023/11/13 07:17:11;;;;;;;0.20;0.20;;;;;;;6.87;75.41;101462.06;5057975;28;20032;-91
2023/11/13 07:19:38;;;;;;;0.10;0.10;;;;;;;7.23;74.15;101475.06;5059958;28;20111;-93
2023/11/13 07:22:03;;;;;;;0.10;0.10;;;;;;;7.37;72.08;101470.44;5066467;28;20028;-91
2023/11/13 07:24:29;;;;;;;0.20;0.20;;;;;;;7.26;72.23;101462.13;5061463;28;20036;-85
2023/11/13 07:26:54;;;;;;;0.20;0.20;;;;;;;7.51;71.76;101475.31;5056279;28;20071;-89
2023/11/13 07:29:21;;;;;;;0.20;0.20;;;;;;;7.59;70.89;101450.25;5035871;28;20040;-91
2023/11/13 07:31:47;;;;;;;0.20;0.20;;;;;;;7.72;72.20;101461.94;5069542;28;20025;-93
2023/11/13 07:34:13;;;;;;;0.20;0.20;;;;;;;7.82;70.43;101480.59;5028727;28;20090;-87
2023/11/13 07:36:38;;;;;;;0.20;0.20;;;;;;;8.05;70.08;101496.31;5054703;28;20041;-92
2023/11/13 07:39:04;;;;;;;0.10;0.10;;;;;;;8.11;70.17;101488.47;5064280;28;20033;-95
2023/11/13 07:41:33;;;;;;;0.10;0.10;;;;;;;8.18;69.00;101481.44;5051031;28;20102;-87
2023/11/13 07:43:59;;;;;;;0.20;0.20;;;;;;;8.10;68.82;101480.78;5056908;28;20049;-91
2023/11/13 07:46:24;;;;;;;0.20;0.20;;;;;;;8.06;68.89;101490.28;5063110;28;20048;-90
2023/11/13 07:48:50;;;;;;;0.20;0.20;;;;;;;8.11;67.99;101492.75;5064875;28;20032;-92
2023/11/13 07:51:17;;;;;;;0.20;0.20;;;;;;;8.08;67.65;101482.53;5040243;28;20380;-91
2023/11/13 07:53:46;;;;;;;0.10;0.10;;;;;;;8.27;66.42;101501.81;5048807;28;20040;-88
2023/11/13 07:56:13;;;;;;;0.20;0.20;;;;;;;8.33;66.19;101499.91;5064010;28;20379;-89
2023/11/13 07:58:39;;;;;;;0.20;0.20;;;;;;;8.24;64.63;101461.47;5056088;28;20033;-89
2023/11/13 08:01:04;;;;;;;0.20;0.20;;;;;;;8.29;64.72;101466.53;5051905;28;20044;-83
2023/11/13 08:03:31;;;;;;;0.20;0.20;;;;;;;8.29;64.70;101449.31;5077320;28;20051;-88
2023/11/13 08:05:57;;;;;;;0.20;0.20;;;;;;;8.39;64.11;101472.31;5028155;28;20061;-88
2023/11/13 08:08:23;;;;;;;0.10;0.10;;;;;;;8.50;63.65;101463.41;5041183;28;20035;-90
2023/11/13 08:10:49;;;;;;;0.20;0.20;;;;;;;8.45;63.38;101465.25;5056973;28;20029;-89
2023/11/13 08:13:15;;;;;;;0.17;0.17;;;;;;;8.66;63.36;101475.91;5065106;28;20035;-92
2023/11/13 08:15:42;;;;;;;0.20;0.20;;;;;;;8.79;62.66;101475.50;5058498;28;20043;-92
2023/11/13 08:18:13;;;;;;;0.20;0.20;;;;;;;8.76;62.27;101478.19;5066428;28;20063;-84
2023/11/13 08:20:42;;;;;;;0.20;0.20;;;;;;;8.78;62.41;101484.13;5060838;28;20127;-88
2023/11/13 08:23:10;;;;;;;0.20;0.20;;;;;;;8.71;62.33;101464.56;5061875;28;20441;-89
2023/11/13 08:25:43;;;;;;;0.10;0.10;;;;;;;8.94;61.79;101470.78;5061832;28;20032;-83
2023/11/13 08:28:11;;;;;;;0.20;0.20;;;;;;;8.93;62.45;101476.84;5048736;28;20086;-88
2023/11/13 08:30:37;;;;;;;0.20;0.20;;;;;;;8.85;63.78;101480.50;5071283;28;20049;-92
2023/11/13 08:33:03;;;;;;;0.10;0.10;;;;;;;8.89;63.35;101494.16;5061634;28;20610;-91
2023/11/13 08:35:32;;;;;;;0.10;0.10;;;;;;;9.12;63.43;101501.22;5077595;28;20035;-93
2023/11/13 08:37:59;;;;;;;0.20;0.20;;;;;;;9.29;63.24;101495.59;5077267;28;20111;-92
2023/11/13 08:40:25;;;;;;;0.20;0.20;;;;;;;9.31;62.05;101481.72;5044793;28;20028;-90
2023/11/13 08:42:51;;;;;;;0.20;0.20;;;;;;;9.43;61.30;101502.00;5034146;28;20059;-86
2023/11/13 08:45:18;;;;;;;0.20;0.20;;;;;;;9.48;61.93;101502.75;5057522;28;20032;-91
2023/11/13 08:47:53;;;;;;;0.20;0.20;;;;;;;9.43;62.29;101486.53;5069828;28;20044;-92
2023/11/13 08:50:20;;;;;;;0.20;0.20;;;;;;;9.58;61.86;101510.22;5033908;28;20514;-91
2023/11/13 08:52:47;;;;;;;0.20;0.20;;;;;;;9.52;59.49;101505.22;5033786;28;20395;-87
2023/11/13 08:55:13;;;;;;;0.20;0.20;;;;;;;9.71;59.33;101506.34;5051218;28;20035;-85
2023/11/13 08:57:45;;;;;;;0.20;0.20;;;;;;;9.72;59.74;101492.53;5048255;28;20036;-84
2023/11/13 09:00:21;;;;;;;0.20;0.20;;;;;;;9.79;59.66;101494.03;5030909;28;20111;-87
2023/11/13 09:02:47;;;;;;;0.20;0.20;;;;;;;9.84;58.27;101515.41;5051335;28;20032;-85
2023/11/13 09:05:13;;;;;;;0.20;0.20;;;;;;;9.85;57.39;101524.84;5053971;28;20032;-85
2023/11/13 09:07:42;;;;;;;0.10;0.10;;;;;;;9.83;58.08;101520.63;5068367;28;20043;-85
2023/11/13 09:10:08;;;;;;;0.20;0.20;;;;;;;9.92;57.15;101516.00;5050794;28;20083;-84
2023/11/13 09:12:38;;;;;;;0.20;0.20;;;;;;;9.97;58.97;101506.38;5052103;28;20468;-83
2023/11/13 09:15:15;;;;;;;0.20;0.20;;;;;;;10.08;58.63;101506.00;5070265;28;20110;-84
2023/11/13 09:17:48;;;;;;;0.20;0.20;;;;;;;10.15;58.96;101511.84;5070805;28;20067;-84
2023/11/13 09:20:20;;;;;;;0.20;0.20;;;;;;;10.07;57.04;101515.50;5063348;28;20021;-82
2023/11/13 09:22:49;;;;;;;0.20;0.20;;;;;;;10.00;56.64;101508.84;5063643;28;20115;-90
2023/11/13 09:25:15;;;;;;;0.20;0.20;;;;;;;10.26;56.09;101515.78;5051457;28;20029;-90
2023/11/13 09:27:48;;;;;;;0.20;0.20;;;;;;;10.27;56.60;101506.28;5046450;28;20496;-91
2023/11/13 09:30:20;;;;;;;0.20;0.20;;;;;;;10.26;56.99;101484.75;5046032;28;20517;-87
2023/11/13 09:32:46;;;;;;;0.20;0.20;;;;;;;10.42;56.57;101510.09;5085782;28;20544;-87
2023/11/13 09:35:18;;;;;;;0.20;0.20;;;;;;;10.42;56.16;101513.53;5061502;28;20283;-87
2023/11/13 09:37:54;;;;;;;0.20;0.20;;;;;;;10.56;56.05;101513.06;5019844;28;20029;-89
2023/11/13 09:40:24;;;;;;;0.20;0.20;;;;;;;10.77;56.12;101511.44;5060258;28;20038;-87
2023/11/13 09:42:51;;;;;;;0.10;0.10;;;;;;;10.55;54.90;101475.16;5050971;28;20040;-86
2023/11/13 09:45:16;;;;;;;0.20;0.20;;;;;;;10.72;54.77;101484.91;5075855;28;20029;-92
2023/11/13 09:47:45;;;;;;;0.20;0.20;;;;;;;10.77;53.75;101475.22;5071946;28;20102;-88
2023/11/13 09:50:15;;;;;;;0.20;0.20;;;;;;;10.80;54.75;101469.91;5070926;28;20054;-91
2023/11/13 09:52:49;;;;;;;0.20;0.20;;;;;;;10.85;55.54;101453.34;5052742;28;20040;-89
2023/11/13 09:55:19;;;;;;;0.20;0.20;;;;;;;11.00;55.34;101467.44;5066254;28;20039;-88
2023/11/13 09:57:46;;;;;;;0.20;0.20;;;;;;;11.01;55.14;101453.63;5048676;28;20574;-87
2023/11/13 10:00:16;;;;;;;0.10;0.10;;;;;;;11.20;57.63;101433.03;5066701;28;20486;-89
2023/11/13 10:02:52;;;;;;;0.20;0.20;;;;;;;11.30;55.58;101452.47;5040147;28;20561;-89
2023/11/13 10:05:20;;;;;;;0.20;0.20;;;;;;;11.06;54.88;101424.94;5032779;28;20123;-86
2023/11/13 10:07:52;;;;;;;0.20;0.20;;;;;;;11.33;54.90;101456.72;5061196;28;20033;-85
2023/11/13 10:10:19;;;;;;;0.20;0.20;;;;;;;11.29;54.97;101450.78;5070873;28;20031;-87
2023/11/13 10:12:45;;;;;;;0.20;0.20;;;;;;;11.24;55.72;101428.59;5052660;28;20040;-93
2023/11/13 10:15:17;;;;;;;0.20;0.20;;;;;;;11.29;55.99;101434.41;5049463;28;20186;-94
2023/11/13 10:17:48;;;;;;;0.20;0.20;;;;;;;11.26;56.34;101435.38;5036232;28;20507;-90
2023/11/13 10:20:18;;;;;;;0.20;0.20;;;;;;;11.29;55.36;101431.81;5059737;28;20474;-89
2023/11/13 10:22:45;;;;;;;0.22;0.20;;;;;;;11.14;55.90;101418.56;5055733;28;20037;-89
2023/11/13 10:25:11;;;;;;;0.20;0.20;;;;;;;11.31;55.96;101435.22;5050840;28;20033;-85
2023/11/13 10:27:44;;;;;;;0.10;0.10;;;;;;;11.61;64.30;101428.81;5051184;28;20388;-91
2023/11/13 10:30:10;;;;;;;0.20;0.20;;;;;;;12.07;59.98;101426.94;5061437;28;20032;-87
2023/11/13 10:32:36;;;;;;;0.20;0.20;;;;;;;12.32;58.33;101424.97;5034993;28;20055;-91
2023/11/13 10:35:04;;;;;;;0.13;0.13;;;;;;;12.27;54.31;101424.31;5051567;28;20576;-91
2023/11/13 10:37:29;;;;;;;0.10;0.10;;;;;;;12.03;54.35;101409.81;5033806;28;20060;-85
2023/11/13 10:39:55;;;;;;;0.20;0.20;;;;;;;12.06;55.02;101410.53;5056765;28;20509;-86
2023/11/13 10:42:25;;;;;;;0.20;0.20;;;;;;;12.19;54.36;101418.66;5068957;28;20040;-88
2023/11/13 10:45:01;;;;;;;0.20;0.20;;;;;;;12.24;54.33;101398.53;5085298;28;20067;-86
2023/11/13 10:47:35;;;;;;;0.20;0.20;;;;;;;12.23;54.04;101398.59;5070874;28;20514;-86
2023/11/13 10:50:01;;;;;;;0.10;0.10;;;;;;;12.28;54.48;101396.63;5052404;28;20062;-89
2023/11/13 10:52:29;;;;;;;0.20;0.20;;;;;;;12.30;54.30;101400.03;5034751;28;20091;-86
2023/11/13 10:55:01;;;;;;;0.20;0.20;;;;;;;12.23;53.95;101370.91;5051160;28;20029;-88
2023/11/13 10:57:26;;;;;;;0.13;0.13;;;;;;;12.41;54.55;101394.34;5070039;28;20056;-87
2023/11/13 10:59:53;;;;;;;0.20;0.20;;;;;;;12.41;54.35;101384.81;5055436;28;20055;-92
2023/11/13 11:02:26;;;;;;;0.20;0.20;;;;;;;12.57;53.94;101395.34;5039532;28;20423;-91
2023/11/13 11:04:58;;;;;;;0.10;0.10;;;;;;;12.53;53.84;101389.44;5070009;28;20817;-93
2023/11/13 11:07:29;;;;;;;0.20;0.20;;;;;;;12.56;53.92;101388.47;5042334;28;20029;-94
2023/11/13 11:10:01;;;;;;;0.20;0.20;;;;;;;12.48;53.92;101387.97;5080616;28;20394;-94
2023/11/13 11:12:42;;;;;;;0.15;0.15;;;;;;;12.49;55.92;101387.06;5061049;28;20029;-92
2023/11/13 11:15:32;;;;;;;0.20;0.20;;;;;;;12.60;54.26;101390.88;5070152;28;20048;-92
2023/11/13 11:18:32;;;;;;;0.20;0.20;;;;;;;12.64;53.57;101386.38;5073273;28;20135;-92
2023/11/13 11:21:35;;;;;;;0.20;0.20;;;;;;;12.54;53.33;101374.72;5068866;28;20086;-90
2023/11/13 11:24:14;;;;;;;0.20;0.20;;;;;;;12.54;53.39;101372.13;5072986;28;20032;-92
2023/11/13 11:29:40;;;;;;;0.10;0.10;;;;;;;12.43;53.11;101362.22;5067861;28;20086;-91
2023/11/13 11:32:13;;;;;;;0.20;0.20;;;;;;;12.30;52.93;101348.13;5052318;28;20107;-83
2023/11/13 11:34:41;;;;;;;0.20;0.20;;;;;;;12.30;52.94;101361.94;5069714;28;20029;-89
2023/11/13 11:37:16;;;;;;;0.20;0.20;;;;;;;12.32;52.97;101354.09;5021439;28;20035;-89